createdAt,value
2019-03-30T00:02:16.937Z,88.90
2019-03-30T00:04:45.144Z,88.90
2019-03-30T00:07:13.344Z,89.20
2019-03-30T00:09:41.645Z,89.50
2019-03-30T00:12:09.853Z,89.70
2019-03-30T00:14:38.065Z,90.00
2019-03-30T00:17:06.349Z,90.00
2019-03-30T00:19:35.297Z,90.00
2019-03-30T00:22:03.644Z,90.20
2019-03-30T00:24:31.873Z,90.60
2019-03-30T00:27:00.092Z,90.60
2019-03-30T00:29:28.285Z,90.00
2019-03-30T00:31:56.510Z,90.20
2019-03-30T00:34:24.721Z,90.30
2019-03-30T00:36:52.948Z,90.40
2019-03-30T00:39:21.148Z,90.40
2019-03-30T00:41:49.415Z,90.30
2019-03-30T00:44:17.667Z,90.40
2019-03-30T00:46:45.869Z,90.40
2019-03-30T00:49:14.080Z,90.50
2019-03-30T00:51:42.293Z,90.90
2019-03-30T00:54:10.489Z,90.50
2019-03-30T00:56:38.711Z,91.00
2019-03-30T00:59:07.793Z,91.20
2019-03-30T01:01:35.996Z,90.90
2019-03-30T01:04:04.237Z,90.80
2019-03-30T01:06:32.434Z,91.30
2019-03-30T01:09:00.655Z,91.60
2019-03-30T01:11:28.930Z,91.90
2019-03-30T01:13:57.144Z,91.50
2019-03-30T01:16:25.424Z,91.40
2019-03-30T01:18:53.640Z,91.80
2019-03-30T01:21:21.901Z,91.50
2019-03-30T01:23:50.118Z,91.50
2019-03-30T01:26:18.375Z,91.20
2019-03-30T01:28:46.589Z,91.60
2019-03-30T01:31:14.806Z,91.80
2019-03-30T01:33:43.045Z,91.60
2019-03-30T01:36:11.316Z,91.50
2019-03-30T01:38:39.514Z,91.70
2019-03-30T01:41:07.712Z,91.10
2019-03-30T01:43:35.999Z,91.00
2019-03-30T01:46:04.208Z,91.30
2019-03-30T01:48:32.416Z,91.40
2019-03-30T01:51:00.647Z,91.70
2019-03-30T01:53:29.009Z,92.00
2019-03-30T01:55:57.249Z,92.10
2019-03-30T01:58:25.448Z,92.10
2019-03-30T02:00:53.652Z,92.10
2019-03-30T02:03:21.873Z,92.20
2019-03-30T02:05:50.072Z,91.80
2019-03-30T02:08:18.331Z,91.90
2019-03-30T02:10:46.613Z,92.00
2019-03-30T02:13:14.814Z,91.80
2019-03-30T02:15:43.060Z,91.60
2019-03-30T02:18:11.289Z,91.80
2019-03-30T02:20:41.981Z,92.00
2019-03-30T02:23:09.583Z,91.50
2019-03-30T02:25:37.795Z,91.70
2019-03-30T02:28:07.268Z,91.60
2019-03-30T02:30:35.731Z,92.00
2019-03-30T02:33:03.933Z,92.30
2019-03-30T02:35:32.148Z,92.10
2019-03-30T02:38:00.362Z,92.00
2019-03-30T02:40:28.602Z,93.30
2019-03-30T02:42:56.810Z,93.10
2019-03-30T02:45:25.030Z,92.60
2019-03-30T02:47:53.228Z,92.90
2019-03-30T02:50:21.452Z,92.60
2019-03-30T02:52:49.765Z,92.60
2019-03-30T02:55:17.954Z,92.60
2019-03-30T02:57:46.181Z,92.90
2019-03-30T03:00:15.489Z,92.90
2019-03-30T03:02:43.771Z,93.10
2019-03-30T03:05:11.991Z,93.50
2019-03-30T03:07:40.210Z,94.20
2019-03-30T03:10:08.423Z,94.40
2019-03-30T03:12:36.665Z,95.00
2019-03-30T03:15:08.076Z,94.80
2019-03-30T03:17:36.303Z,94.80
2019-03-30T03:20:05.884Z,94.40
2019-03-30T03:22:34.094Z,94.00
2019-03-30T03:25:02.377Z,93.90
2019-03-30T03:27:30.675Z,93.90
2019-03-30T03:29:58.878Z,94.20
2019-03-30T03:32:27.142Z,94.30
2019-03-30T03:34:55.946Z,94.60
2019-03-30T03:37:24.184Z,94.70
2019-03-30T03:39:54.165Z,94.60
2019-03-30T03:42:22.383Z,94.10
2019-03-30T03:44:50.596Z,93.80
2019-03-30T03:47:18.808Z,93.80
2019-03-30T03:49:47.036Z,93.70
2019-03-30T03:52:15.237Z,94.40
2019-03-30T03:54:43.457Z,94.80
2019-03-30T03:57:12.342Z,94.70
2019-03-30T03:59:40.551Z,94.40
2019-03-30T04:02:09.129Z,94.60
2019-03-30T04:04:38.985Z,94.30
2019-03-30T04:07:07.256Z,94.30
2019-03-30T04:09:35.475Z,94.60
2019-03-30T04:12:04.249Z,94.50
2019-03-30T04:14:32.454Z,94.80
2019-03-30T04:17:00.676Z,95.30
2019-03-30T04:19:28.954Z,94.90
2019-03-30T04:21:57.194Z,94.50
2019-03-30T04:24:25.401Z,94.40
2019-03-30T04:26:53.617Z,94.50
2019-03-30T04:29:21.840Z,94.30
2019-03-30T04:31:50.050Z,94.10
2019-03-30T04:34:18.270Z,94.30
2019-03-30T04:36:46.492Z,94.30
2019-03-30T04:39:14.720Z,94.20
2019-03-30T04:41:43.024Z,94.10
2019-03-30T04:44:11.247Z,94.50
2019-03-30T04:46:39.448Z,94.50
2019-03-30T04:49:07.658Z,94.90
2019-03-30T04:51:35.961Z,95.20
2019-03-30T04:54:04.172Z,94.60
2019-03-30T04:56:32.388Z,94.90
2019-03-30T04:59:00.600Z,95.70
2019-03-30T05:01:28.853Z,95.00
2019-03-30T05:03:57.085Z,95.10
2019-03-30T05:06:25.292Z,94.30
2019-03-30T05:08:53.548Z,94.40
2019-03-30T05:11:21.747Z,94.60
2019-03-30T05:13:49.973Z,94.70
2019-03-30T05:16:18.186Z,94.90
2019-03-30T05:18:46.426Z,95.40
2019-03-30T05:21:14.628Z,95.20
2019-03-30T05:23:42.836Z,95.00
2019-03-30T05:26:11.045Z,95.40
2019-03-30T05:28:39.263Z,95.10
2019-03-30T05:31:07.475Z,95.00
2019-03-30T05:33:35.693Z,94.80
2019-03-30T05:36:03.935Z,95.00
2019-03-30T05:38:32.136Z,94.70
2019-03-30T05:41:00.384Z,95.00
2019-03-30T05:43:28.694Z,94.90
2019-03-30T05:45:56.892Z,94.90
2019-03-30T05:48:25.104Z,94.40
2019-03-30T05:50:53.320Z,94.60
2019-03-30T05:53:21.528Z,94.60
2019-03-30T05:55:49.800Z,94.10
2019-03-30T05:58:18.049Z,94.40
2019-03-30T06:00:46.257Z,94.30
2019-03-30T06:03:14.463Z,93.90
2019-03-30T06:05:42.685Z,93.30
2019-03-30T06:08:10.909Z,93.80
2019-03-30T06:10:39.253Z,93.50
2019-03-30T06:13:07.499Z,93.20
2019-03-30T06:15:35.721Z,93.00
2019-03-30T06:18:03.928Z,93.30
2019-03-30T06:20:32.144Z,92.30
2019-03-30T06:23:00.372Z,92.40
2019-03-30T06:25:28.704Z,92.60
2019-03-30T06:27:56.936Z,92.40
2019-03-30T06:30:27.936Z,91.80
2019-03-30T06:32:56.169Z,91.70
2019-03-30T06:35:24.374Z,91.20
2019-03-30T06:37:52.598Z,91.20
2019-03-30T06:40:23.474Z,90.90
2019-03-30T06:42:51.692Z,90.50
2019-03-30T06:45:19.905Z,89.80
2019-03-30T06:47:48.128Z,88.70
2019-03-30T06:50:16.333Z,88.00
2019-03-30T06:52:56.750Z,85.60
2019-03-30T06:55:14.504Z,79.40
2019-03-30T06:57:42.708Z,75.80
2019-03-30T07:00:10.918Z,70.50
2019-03-30T07:02:39.141Z,64.10
2019-03-30T07:05:07.816Z,58.90
2019-03-30T07:07:36.296Z,54.40
2019-03-30T07:10:05.086Z,51.70
2019-03-30T07:12:33.295Z,49.30
2019-03-30T07:15:01.781Z,47.20
2019-03-30T07:17:29.983Z,46.70
2019-03-30T07:19:58.207Z,45.60
2019-03-30T07:22:26.487Z,44.80
2019-03-30T07:24:54.701Z,45.50
2019-03-30T07:27:22.912Z,43.40
2019-03-30T07:29:51.136Z,41.70
2019-03-30T07:32:19.373Z,39.80
2019-03-30T07:34:47.594Z,38.30
2019-03-30T07:37:15.840Z,37.50
2019-03-30T07:39:44.051Z,37.00
2019-03-30T07:42:12.271Z,37.10
2019-03-30T07:44:40.472Z,36.10
2019-03-30T07:47:08.735Z,34.30
2019-03-30T07:49:36.933Z,34.30
2019-03-30T07:52:05.159Z,32.30
2019-03-30T07:54:33.377Z,32.30
2019-03-30T07:57:06.305Z,32.60
2019-03-30T07:59:31.516Z,32.30
2019-03-30T08:01:59.743Z,31.40
2019-03-30T08:04:28.771Z,32.20
2019-03-30T08:06:57.915Z,30.00
2019-03-30T08:09:26.127Z,29.60
2019-03-30T08:11:54.365Z,29.50
2019-03-30T08:14:22.627Z,30.10
2019-03-30T08:16:50.816Z,29.30
2019-03-30T08:19:21.658Z,30.10
2019-03-30T08:21:48.981Z,31.20
2019-03-30T08:24:17.191Z,30.00
2019-03-30T08:26:45.412Z,30.20
2019-03-30T08:29:13.612Z,29.90
2019-03-30T08:31:41.857Z,31.80
2019-03-30T08:34:10.064Z,30.80
2019-03-30T08:36:38.307Z,34.40
2019-03-30T08:39:07.256Z,35.20
2019-03-30T08:41:35.463Z,33.50
2019-03-30T08:44:03.683Z,31.80
2019-03-30T08:46:31.906Z,31.30
2019-03-30T08:49:02.779Z,29.90
2019-03-30T08:51:30.999Z,29.30
2019-03-30T08:53:59.370Z,29.00
2019-03-30T08:59:19.925Z,29.30
2019-03-30T09:01:48.164Z,30.80
2019-03-30T09:04:16.464Z,29.20
2019-03-30T09:06:44.686Z,30.80
2019-03-30T09:09:12.992Z,31.70
2019-03-30T09:11:43.406Z,30.50
2019-03-30T09:14:11.200Z,31.20
2019-03-30T09:16:39.460Z,31.40
2019-03-30T09:19:07.676Z,29.40
2019-03-30T09:21:35.883Z,30.20
2019-03-30T09:24:09.961Z,30.00
2019-03-30T09:26:34.115Z,30.30
2019-03-30T09:29:02.318Z,29.00
2019-03-30T09:31:30.604Z,28.40
2019-03-30T09:33:58.824Z,31.40
2019-03-30T09:36:27.162Z,32.50
2019-03-30T09:38:55.685Z,32.30
2019-03-30T09:41:23.904Z,32.20
2019-03-30T09:43:52.145Z,31.60
2019-03-30T09:46:20.384Z,31.90
2019-03-30T09:48:48.592Z,34.00
2019-03-30T09:51:16.828Z,34.60
2019-03-30T09:53:45.040Z,32.80
2019-03-30T09:56:13.260Z,33.10
2019-03-30T09:58:41.485Z,32.20
2019-03-30T10:01:09.718Z,30.80
2019-03-30T10:03:37.915Z,31.50
2019-03-30T10:06:06.140Z,31.80
2019-03-30T10:08:34.346Z,31.80
2019-03-30T10:11:02.556Z,31.20
2019-03-30T10:13:30.786Z,30.50
2019-03-30T10:15:58.996Z,31.30
2019-03-30T10:18:27.210Z,32.60
2019-03-30T10:20:55.453Z,30.80
2019-03-30T10:23:23.677Z,31.90
2019-03-30T10:25:51.960Z,31.90
2019-03-30T10:28:20.185Z,31.40
2019-03-30T10:30:48.464Z,31.00
2019-03-30T10:33:16.746Z,31.00
2019-03-30T10:35:45.036Z,30.50
2019-03-30T10:38:13.311Z,29.10
2019-03-30T10:40:41.587Z,28.70
2019-03-30T10:43:09.855Z,29.50
2019-03-30T10:45:38.076Z,30.50
2019-03-30T10:48:06.311Z,29.90
2019-03-30T10:50:34.540Z,29.00
2019-03-30T10:53:02.840Z,29.80
2019-03-30T10:55:31.048Z,29.80
2019-03-30T10:57:59.312Z,29.40
2019-03-30T11:00:35.173Z,29.40
2019-03-30T11:03:03.432Z,30.00
2019-03-30T11:05:31.644Z,29.20
2019-03-30T11:07:59.943Z,28.40
2019-03-30T11:10:28.156Z,29.40
2019-03-30T11:12:56.440Z,30.60
2019-03-30T11:15:24.648Z,28.30
2019-03-30T11:17:52.865Z,28.60
2019-03-30T11:20:21.080Z,28.40
2019-03-30T11:22:49.308Z,28.40
2019-03-30T11:25:17.549Z,27.80
2019-03-30T11:27:45.774Z,28.10
2019-03-30T11:30:14.168Z,26.70
2019-03-30T11:32:42.381Z,27.30
2019-03-30T11:35:10.628Z,27.80
2019-03-30T11:37:38.865Z,26.60
2019-03-30T11:40:07.093Z,28.90
2019-03-30T11:42:35.308Z,28.10
2019-03-30T11:45:04.601Z,27.30
2019-03-30T11:47:32.825Z,26.90
2019-03-30T11:50:01.058Z,25.80
2019-03-30T11:52:29.278Z,25.80
2019-03-30T11:54:57.490Z,26.20
2019-03-30T11:57:25.709Z,27.70
2019-03-30T11:59:53.917Z,27.40
2019-03-30T12:02:28.160Z,27.30
2019-03-30T12:04:52.084Z,26.50
2019-03-30T12:07:20.297Z,25.50
2019-03-30T12:09:48.513Z,26.90
2019-03-30T12:12:16.740Z,27.10
2019-03-30T12:14:44.961Z,26.00
2019-03-30T12:17:13.171Z,25.40
2019-03-30T12:19:41.385Z,25.40
2019-03-30T12:22:09.612Z,26.90
2019-03-30T12:24:37.832Z,26.70
2019-03-30T12:27:06.051Z,25.40
2019-03-30T12:29:34.256Z,25.60
2019-03-30T12:32:02.476Z,25.40
2019-03-30T12:34:30.769Z,26.60
2019-03-30T12:36:58.972Z,28.70
2019-03-30T12:39:27.214Z,31.00
2019-03-30T12:41:55.513Z,31.30
2019-03-30T12:44:23.750Z,29.20
2019-03-30T12:46:51.963Z,28.00
2019-03-30T12:49:20.183Z,28.00
2019-03-30T12:51:48.452Z,28.40
2019-03-30T12:54:16.701Z,28.30
2019-03-30T12:56:44.904Z,28.70
2019-03-30T12:59:13.229Z,27.90
2019-03-30T13:01:41.440Z,29.10
2019-03-30T13:04:09.684Z,29.90
2019-03-30T13:06:37.900Z,29.70
2019-03-30T13:09:06.680Z,30.20
2019-03-30T13:11:34.899Z,30.40
2019-03-30T13:14:03.133Z,30.40
2019-03-30T13:16:31.366Z,30.00
2019-03-30T13:18:59.578Z,30.40
2019-03-30T13:21:27.806Z,30.40
2019-03-30T13:23:56.017Z,31.50
2019-03-30T13:26:24.256Z,30.70
2019-03-30T13:28:52.461Z,29.70
2019-03-30T13:31:20.681Z,29.30
2019-03-30T13:33:48.960Z,28.30
2019-03-30T13:36:17.596Z,27.50
2019-03-30T13:38:45.888Z,26.70
2019-03-30T13:41:14.570Z,25.90
2019-03-30T13:43:42.851Z,25.00
2019-03-30T13:46:11.069Z,23.70
2019-03-30T13:48:39.307Z,24.20
2019-03-30T13:51:07.547Z,23.70
2019-03-30T13:53:35.769Z,23.80
2019-03-30T13:56:16.582Z,24.00
2019-03-30T13:58:36.369Z,24.90
2019-03-30T14:01:03.858Z,23.50
2019-03-30T14:03:32.078Z,24.10
2019-03-30T14:06:00.284Z,25.50
2019-03-30T14:08:28.516Z,25.50
2019-03-30T14:10:56.786Z,27.60
2019-03-30T14:13:25.036Z,29.30
2019-03-30T14:15:53.244Z,30.40
2019-03-30T14:18:21.466Z,32.00
2019-03-30T14:20:49.688Z,31.80
2019-03-30T14:23:17.917Z,31.60
2019-03-30T14:25:46.133Z,31.80
2019-03-30T14:28:14.351Z,31.20
2019-03-30T14:30:42.591Z,31.50
2019-03-30T14:33:10.792Z,31.00
2019-03-30T14:35:39.009Z,29.90
2019-03-30T14:38:07.241Z,29.00
2019-03-30T14:40:35.449Z,28.90
2019-03-30T14:43:03.656Z,28.70
2019-03-30T14:45:31.895Z,29.50
2019-03-30T14:48:00.115Z,28.00
2019-03-30T14:50:28.329Z,27.60
2019-03-30T14:52:56.548Z,27.20
2019-03-30T14:55:24.760Z,27.60
2019-03-30T14:57:52.981Z,29.20
2019-03-30T15:00:21.320Z,29.60
2019-03-30T15:02:49.695Z,29.80
2019-03-30T15:05:17.902Z,30.40
2019-03-30T15:07:46.111Z,31.50
2019-03-30T15:10:15.495Z,31.40
2019-03-30T15:12:43.709Z,31.50
2019-03-30T15:15:11.979Z,32.30
2019-03-30T15:17:40.972Z,31.90
2019-03-30T15:20:10.561Z,31.80
2019-03-30T15:22:38.882Z,32.30
2019-03-30T15:25:07.675Z,32.70
2019-03-30T15:27:35.877Z,32.30
2019-03-30T15:30:08.334Z,30.90
2019-03-30T15:32:36.557Z,29.20
2019-03-30T15:35:06.322Z,28.10
2019-03-30T15:37:34.520Z,27.30
2019-03-30T15:40:02.736Z,25.40
2019-03-30T15:42:30.958Z,25.40
2019-03-30T15:44:59.171Z,26.40
2019-03-30T15:47:27.390Z,27.20
2019-03-30T15:49:55.624Z,28.90
2019-03-30T15:52:23.841Z,27.90
2019-03-30T15:54:52.056Z,27.40
2019-03-30T15:57:20.276Z,24.90
2019-03-30T15:59:48.487Z,24.10
2019-03-30T16:02:16.750Z,25.10
2019-03-30T16:04:45.014Z,26.90
2019-03-30T16:07:13.225Z,28.00
2019-03-30T16:09:41.441Z,28.00
2019-03-30T16:12:09.661Z,28.20
2019-03-30T16:14:37.877Z,28.40
2019-03-30T16:17:06.084Z,29.20
2019-03-30T16:19:34.339Z,30.30
2019-03-30T16:22:11.240Z,31.30
2019-03-30T16:24:39.459Z,31.80
2019-03-30T16:27:07.672Z,33.10
2019-03-30T16:29:36.275Z,33.90
2019-03-30T16:32:04.484Z,34.00
2019-03-30T16:34:32.710Z,34.20
2019-03-30T16:37:00.938Z,34.30
2019-03-30T16:39:29.157Z,33.50
2019-03-30T16:41:57.374Z,32.60
2019-03-30T16:44:25.592Z,33.40
2019-03-30T16:46:57.224Z,33.60
2019-03-30T16:49:23.962Z,33.90
2019-03-30T16:51:52.185Z,32.40
2019-03-30T16:54:20.408Z,33.40
2019-03-30T16:56:48.656Z,31.60
2019-03-30T16:59:16.900Z,30.10
2019-03-30T17:01:45.167Z,30.70
2019-03-30T17:04:16.776Z,30.60
2019-03-30T17:06:45.187Z,30.80
2019-03-30T17:09:13.442Z,30.40
2019-03-30T17:11:41.863Z,30.70
2019-03-30T17:14:10.100Z,31.60
2019-03-30T17:16:38.384Z,32.90
2019-03-30T17:19:07.279Z,33.00
2019-03-30T17:21:37.288Z,34.20
2019-03-30T17:24:05.496Z,34.40
2019-03-30T17:26:34.050Z,35.30
2019-03-30T17:29:02.330Z,34.00
2019-03-30T17:31:30.541Z,35.50
2019-03-30T17:33:58.771Z,34.10
2019-03-30T17:36:27.046Z,36.00
2019-03-30T17:38:55.348Z,36.60
2019-03-30T17:41:23.548Z,36.40
2019-03-30T17:43:51.810Z,36.80
2019-03-30T17:46:20.221Z,36.10
2019-03-30T17:48:48.632Z,36.30
2019-03-30T17:51:16.889Z,35.50
2019-03-30T17:53:46.720Z,35.50
2019-03-30T17:56:15.141Z,35.40
2019-03-30T17:58:43.465Z,34.90
2019-03-30T18:01:15.562Z,34.60
2019-03-30T18:03:41.979Z,35.10
2019-03-30T18:06:10.460Z,35.00
2019-03-30T18:08:38.695Z,35.40
2019-03-30T18:11:06.970Z,36.20
2019-03-30T18:13:36.858Z,36.10
2019-03-30T18:16:05.486Z,37.10
2019-03-30T18:18:33.760Z,36.70
2019-03-30T18:21:01.958Z,37.00
2019-03-30T18:23:30.232Z,37.80
2019-03-30T18:25:58.502Z,37.60
2019-03-30T18:28:27.687Z,38.30
2019-03-30T18:30:56.064Z,39.30
2019-03-30T18:33:24.272Z,40.80
2019-03-30T18:35:52.717Z,41.00
2019-03-30T18:38:21.295Z,42.00
2019-03-30T18:40:49.491Z,41.80
2019-03-30T18:43:17.714Z,42.20
2019-03-30T18:45:45.912Z,42.70
2019-03-30T18:48:15.455Z,42.90
2019-03-30T18:50:43.726Z,44.40
2019-03-30T18:53:12.320Z,45.40
2019-03-30T18:55:40.568Z,44.50
2019-03-30T18:58:08.860Z,45.30
2019-03-30T19:00:38.440Z,45.10
2019-03-30T19:03:06.643Z,45.40
2019-03-30T19:05:34.973Z,45.60
2019-03-30T19:08:03.500Z,46.10
2019-03-30T19:10:31.773Z,46.30
2019-03-30T19:13:00.054Z,46.80
2019-03-30T19:15:28.425Z,47.70
2019-03-30T19:17:57.084Z,47.80
2019-03-30T19:20:25.497Z,48.40
2019-03-30T19:22:53.695Z,49.40
2019-03-30T19:25:21.926Z,49.50
2019-03-30T19:27:50.164Z,48.70
2019-03-30T19:30:18.380Z,46.30
2019-03-30T19:32:46.624Z,47.40
2019-03-30T19:35:14.838Z,49.50
2019-03-30T19:37:43.931Z,48.30
2019-03-30T19:40:12.226Z,49.40
2019-03-30T19:42:40.432Z,49.40
2019-03-30T19:45:08.638Z,48.60
2019-03-30T19:47:36.853Z,47.00
2019-03-30T19:50:05.651Z,49.70
2019-03-30T19:52:40.074Z,51.40
2019-03-30T19:55:05.037Z,49.50
2019-03-30T19:57:33.250Z,49.70
2019-03-30T20:00:01.452Z,50.80
2019-03-30T20:02:29.670Z,52.00
2019-03-30T20:04:57.908Z,52.60
2019-03-30T20:07:26.705Z,51.90
2019-03-30T20:09:54.933Z,50.80
2019-03-30T20:12:23.258Z,49.40
2019-03-30T20:14:51.641Z,49.40
2019-03-30T20:17:19.862Z,49.90
2019-03-30T20:19:48.398Z,49.10
2019-03-30T20:22:16.632Z,48.50
2019-03-30T20:24:44.828Z,48.40
2019-03-30T20:27:13.115Z,50.10
2019-03-30T20:29:41.347Z,50.90
2019-03-30T20:32:09.557Z,52.30
2019-03-30T20:34:37.776Z,53.70
2019-03-30T20:37:06.035Z,55.00
2019-03-30T20:39:34.284Z,55.50
2019-03-30T20:42:02.564Z,56.30
2019-03-30T20:44:30.789Z,58.10
2019-03-30T20:46:59.097Z,58.90
2019-03-30T20:49:27.330Z,58.80
2019-03-30T20:51:55.532Z,59.50
2019-03-30T20:54:23.751Z,58.00
2019-03-30T20:56:52.049Z,58.30
2019-03-30T20:59:20.309Z,59.00
2019-03-30T21:01:48.534Z,59.00
2019-03-30T21:04:16.759Z,59.70
2019-03-30T21:06:44.980Z,59.40
2019-03-30T21:09:13.194Z,60.80
2019-03-30T21:11:41.413Z,61.30
2019-03-30T21:14:09.643Z,59.30
2019-03-30T21:16:37.851Z,59.90
2019-03-30T21:19:06.071Z,59.00
2019-03-30T21:21:34.300Z,59.60
2019-03-30T21:24:02.503Z,59.60
2019-03-30T21:26:30.716Z,60.10
2019-03-30T21:28:58.940Z,60.70
2019-03-30T21:31:27.276Z,61.10
2019-03-30T21:33:55.485Z,61.50
2019-03-30T21:36:23.691Z,62.20
2019-03-30T21:38:51.972Z,61.90
2019-03-30T21:41:20.260Z,62.30
2019-03-30T21:43:48.483Z,63.60
2019-03-30T21:46:16.668Z,63.00
2019-03-30T21:48:44.890Z,60.40
2019-03-30T21:51:13.203Z,59.30
2019-03-30T21:53:41.424Z,62.30
2019-03-30T21:56:09.656Z,62.80
2019-03-30T21:58:37.864Z,62.90
2019-03-30T22:01:06.092Z,64.30
2019-03-30T22:03:34.325Z,64.90
2019-03-30T22:06:02.527Z,64.90
2019-03-30T22:08:30.744Z,65.60
2019-03-30T22:10:58.940Z,66.50
2019-03-30T22:13:27.167Z,67.20
2019-03-30T22:15:55.373Z,67.20
2019-03-30T22:18:23.587Z,66.80
2019-03-30T22:20:51.795Z,66.60
2019-03-30T22:23:19.995Z,66.80
2019-03-30T22:25:48.283Z,65.50
2019-03-30T22:28:16.515Z,64.70
2019-03-30T22:30:44.727Z,66.70
2019-03-30T22:33:13.000Z,66.70
2019-03-30T22:35:41.228Z,65.50
2019-03-30T22:38:09.435Z,66.20
2019-03-30T22:40:41.171Z,65.80
2019-03-30T22:43:07.609Z,65.00
2019-03-30T22:45:35.824Z,63.80
2019-03-30T22:48:04.068Z,63.20
2019-03-30T22:50:32.406Z,63.10
2019-03-30T22:53:00.652Z,63.30
2019-03-30T22:55:28.866Z,63.30
2019-03-30T22:57:57.100Z,63.30
2019-03-30T23:00:38.824Z,65.20
2019-03-30T23:03:06.364Z,65.70
2019-03-30T23:05:34.572Z,66.20
2019-03-30T23:08:02.785Z,65.30
2019-03-30T23:10:31.052Z,65.30
2019-03-30T23:12:59.269Z,65.10
2019-03-30T23:15:27.504Z,65.10
2019-03-30T23:17:55.707Z,66.80
2019-03-30T23:20:23.921Z,67.80
2019-03-30T23:22:52.144Z,66.40
2019-03-30T23:25:20.344Z,67.00
2019-03-30T23:27:48.561Z,67.20
2019-03-30T23:30:16.783Z,67.40
2019-03-30T23:32:44.981Z,67.30
2019-03-30T23:35:13.284Z,67.20
2019-03-30T23:37:41.489Z,67.10
2019-03-30T23:40:09.745Z,65.80
2019-03-30T23:42:37.965Z,66.00
2019-03-30T23:45:06.144Z,67.10
2019-03-30T23:47:34.357Z,68.30
2019-03-30T23:50:02.564Z,69.20
2019-03-30T23:52:30.780Z,69.60
2019-03-30T23:54:58.988Z,70.40
2019-03-30T23:57:27.222Z,70.60
2019-03-30T23:59:55.421Z,71.10
